Aerosim Flight Academy

METAR

KSFB 291453Z 00000KT 10SM FEW009 23/19 A3007 RMK AO2 SLP180 T02280189 51017

TAF

TAF KSFB 291140Z 2912/3012 VRB02KT P6SM SCT008 BKN018 BKN100 TEMPO 2912/2913 BKN006 FM291400 15006KT P6SM SCT030 BKN080 FM291800 19007KT P6SM SCT040 BKN200 FM301000 21012KT P6SM VCSH SCT020 BKN120